createdAt,value
2022-12-19T05:00:31.892Z,1013.35
2022-12-19T05:01:31.829Z,1013.37
2022-12-19T05:02:31.908Z,1013.33
2022-12-19T05:03:31.726Z,1013.34
2022-12-19T05:04:31.688Z,1013.32
2022-12-19T05:05:32.382Z,1013.27
2022-12-19T05:06:31.656Z,1013.28
2022-12-19T05:07:31.663Z,1013.27
2022-12-19T05:08:31.636Z,1013.34
2022-12-19T05:09:31.641Z,1013.28
2022-12-19T05:10:31.613Z,1013.33
2022-12-19T05:11:36.627Z,1013.26
2022-12-19T05:12:31.594Z,1013.31
2022-12-19T05:13:31.591Z,1013.28
2022-12-19T05:14:31.593Z,1013.29
2022-12-19T05:15:31.566Z,1013.34
2022-12-19T05:16:31.726Z,1013.26
2022-12-19T05:17:31.534Z,1013.25
2022-12-19T05:18:31.530Z,1013.30
2022-12-19T05:19:31.540Z,1013.18
2022-12-19T05:20:31.529Z,1013.15
2022-12-19T05:21:31.548Z,1013.14
2022-12-19T05:22:36.507Z,1013.20
2022-12-19T05:23:31.469Z,1013.14
2022-12-19T05:24:32.470Z,1013.16
2022-12-19T05:25:31.444Z,1013.16
2022-12-19T05:26:31.450Z,1013.11
2022-12-19T05:27:31.450Z,1013.08
2022-12-19T05:28:31.415Z,1013.10
2022-12-19T05:29:31.432Z,1013.10
2022-12-19T05:30:32.429Z,1013.10
2022-12-19T05:31:31.462Z,1013.08
2022-12-19T05:32:32.480Z,1013.05
2022-12-19T05:33:36.406Z,1013.05
2022-12-19T05:34:31.351Z,1013.10
2022-12-19T05:35:31.357Z,1013.12
2022-12-19T05:36:32.776Z,1013.10
2022-12-19T05:37:31.324Z,1013.16
2022-12-19T05:38:31.360Z,1013.14
2022-12-19T05:39:31.297Z,1013.16
2022-12-19T05:40:31.356Z,1013.13
2022-12-19T05:41:31.285Z,1013.19
2022-12-19T05:42:31.256Z,1013.22
2022-12-19T05:43:31.254Z,1013.15
2022-12-19T05:44:36.265Z,1013.12
2022-12-19T05:45:31.389Z,1013.16
2022-12-19T05:46:31.298Z,1013.12
2022-12-19T05:47:31.208Z,1013.14
2022-12-19T05:48:31.329Z,1013.14
2022-12-19T05:49:31.180Z,1013.18
2022-12-19T05:50:31.196Z,1013.19
2022-12-19T05:51:31.161Z,1013.14
2022-12-19T05:52:31.156Z,1013.24
2022-12-19T05:53:31.137Z,1013.15
2022-12-19T05:54:31.127Z,1013.15
2022-12-19T05:55:36.216Z,1013.20
2022-12-19T05:56:31.125Z,1013.21
2022-12-19T05:57:31.093Z,1013.27
2022-12-19T05:58:31.083Z,1013.23
2022-12-19T05:59:31.071Z,1013.22
2022-12-19T06:00:31.078Z,1013.28
2022-12-19T06:01:31.076Z,1013.33
2022-12-19T06:02:31.186Z,1013.25
2022-12-19T06:03:31.077Z,1013.25
2022-12-19T06:04:31.135Z,1013.27
2022-12-19T06:05:31.038Z,1013.19
2022-12-19T06:06:36.024Z,1013.23
2022-12-19T06:07:30.995Z,1013.28
2022-12-19T06:08:30.983Z,1013.27
2022-12-19T06:09:30.973Z,1013.19
2022-12-19T06:10:30.955Z,1013.17
2022-12-19T06:11:30.954Z,1013.12
2022-12-19T06:12:30.933Z,1013.18
2022-12-19T06:13:30.935Z,1013.16
2022-12-19T06:14:30.938Z,1013.16
2022-12-19T06:15:30.905Z,1013.12
2022-12-19T06:16:30.951Z,1013.24
2022-12-19T06:17:36.901Z,1013.20
2022-12-19T06:18:30.866Z,1013.22
2022-12-19T06:19:30.853Z,1013.21
2022-12-19T06:20:30.970Z,1013.27
2022-12-19T06:21:30.839Z,1013.19
2022-12-19T06:22:30.821Z,1013.15
2022-12-19T06:23:30.807Z,1013.14
2022-12-19T06:24:31.796Z,1013.15
2022-12-19T06:25:30.784Z,1013.15
2022-12-19T06:26:30.816Z,1013.12
2022-12-19T06:27:30.769Z,1013.18
2022-12-19T06:28:35.782Z,1013.19
2022-12-19T06:29:30.752Z,1013.19
2022-12-19T06:30:30.777Z,1013.17
2022-12-19T06:31:30.789Z,1013.27
2022-12-19T06:32:34.811Z,1013.20
2022-12-19T06:33:31.694Z,1013.21
2022-12-19T06:35:02.387Z,1013.17
2022-12-19T06:35:31.678Z,1013.21
2022-12-19T06:36:30.810Z,1013.18
2022-12-19T06:37:30.691Z,1013.20
2022-12-19T06:38:30.647Z,1013.24
2022-12-19T06:39:35.672Z,1013.19
2022-12-19T06:40:30.638Z,1013.13
2022-12-19T06:41:30.625Z,1013.09
2022-12-19T06:42:30.626Z,1013.16
2022-12-19T06:43:30.621Z,1013.14
2022-12-19T06:44:30.583Z,1013.17
2022-12-19T06:45:30.642Z,1013.16
2022-12-19T06:46:30.570Z,1013.23
2022-12-19T06:47:30.546Z,1013.22
2022-12-19T06:48:30.575Z,1013.12
2022-12-19T06:49:30.554Z,1013.17
2022-12-19T06:50:35.538Z,1013.25
2022-12-19T06:51:30.520Z,1013.29
2022-12-19T06:52:30.647Z,1013.30
2022-12-19T06:53:30.487Z,1013.14
2022-12-19T06:54:30.486Z,1013.10
2022-12-19T06:55:30.452Z,1013.17
2022-12-19T06:56:30.453Z,1013.14
2022-12-19T06:57:30.580Z,1013.14
2022-12-19T06:58:30.447Z,1013.14
2022-12-19T06:59:30.422Z,1013.06
2022-12-19T07:00:31.516Z,1013.00
2022-12-19T07:01:35.557Z,1012.98
2022-12-19T07:02:30.531Z,1012.96
2022-12-19T07:03:30.382Z,1013.01
2022-12-19T07:04:30.360Z,1012.99
2022-12-19T07:05:30.378Z,1013.03
2022-12-19T07:06:30.339Z,1013.12
2022-12-19T07:07:30.379Z,1013.11
2022-12-19T07:08:30.430Z,1013.06
2022-12-19T07:09:30.307Z,1013.11
2022-12-19T07:10:30.371Z,1013.09
2022-12-19T07:11:30.308Z,1013.09
2022-12-19T07:12:35.338Z,1013.11
2022-12-19T07:13:30.337Z,1013.10
2022-12-19T07:14:30.256Z,1013.11
2022-12-19T07:15:30.240Z,1013.10
2022-12-19T07:16:30.341Z,1013.14
2022-12-19T07:17:30.241Z,1013.11
2022-12-19T07:18:30.321Z,1013.17
2022-12-19T07:19:30.194Z,1013.08
2022-12-19T07:20:30.271Z,1013.11
2022-12-19T07:21:30.200Z,1013.14
2022-12-19T07:22:30.186Z,1013.09
2022-12-19T07:23:35.289Z,1013.12
2022-12-19T07:24:30.162Z,1013.14
2022-12-19T07:25:30.195Z,1013.11
2022-12-19T07:26:30.124Z,1013.12
2022-12-19T07:27:35.598Z,1013.14
2022-12-19T07:28:31.188Z,1013.14
2022-12-19T07:29:30.089Z,1013.15
2022-12-19T07:30:30.134Z,1013.13
2022-12-19T07:31:30.137Z,1013.15
2022-12-19T07:32:30.257Z,1013.11
2022-12-19T07:33:30.140Z,1013.06
2022-12-19T07:34:35.059Z,1013.09
2022-12-19T07:35:30.115Z,1013.07
2022-12-19T07:36:30.014Z,1013.08
2022-12-19T07:37:29.994Z,1013.09
2022-12-19T07:38:30.007Z,1013.12
2022-12-19T07:39:30.113Z,1013.10
2022-12-19T07:40:30.154Z,1013.15
2022-12-19T07:41:29.962Z,1013.12
2022-12-19T07:42:32.695Z,1013.06
2022-12-19T07:43:29.987Z,1013.14
2022-12-19T07:44:29.923Z,1013.15
2022-12-19T07:45:35.025Z,1013.14
2022-12-19T07:46:29.916Z,1013.10
2022-12-19T07:47:29.903Z,1013.08
2022-12-19T07:48:29.964Z,1013.16
2022-12-19T07:49:29.871Z,1013.10
2022-12-19T07:50:29.947Z,1013.20
2022-12-19T07:51:29.878Z,1013.20
2022-12-19T07:52:29.849Z,1013.18
2022-12-19T07:53:29.853Z,1013.19
2022-12-19T07:54:29.818Z,1013.14
2022-12-19T07:55:29.920Z,1013.12
2022-12-19T07:56:34.825Z,1013.14
2022-12-19T07:57:29.816Z,1013.21
2022-12-19T07:58:29.820Z,1013.17
2022-12-19T07:59:35.648Z,1013.19
2022-12-19T08:00:30.766Z,1013.12
2022-12-19T08:01:29.873Z,1013.19
2022-12-19T08:02:29.818Z,1013.23
2022-12-19T08:03:29.765Z,1013.22
2022-12-19T08:04:29.790Z,1013.29
2022-12-19T08:05:29.696Z,1013.21
2022-12-19T08:06:29.711Z,1013.22
2022-12-19T08:07:34.758Z,1013.15
2022-12-19T08:08:29.708Z,1013.14
2022-12-19T08:09:29.667Z,1013.09
2022-12-19T08:10:29.647Z,1013.09
2022-12-19T08:11:29.744Z,1013.10
2022-12-19T08:12:29.722Z,1013.11
2022-12-19T08:13:33.812Z,1013.08
2022-12-19T08:14:30.610Z,1013.12
2022-12-19T08:15:29.585Z,1013.13
2022-12-19T08:16:29.619Z,1013.18
2022-12-19T08:17:29.609Z,1013.08
2022-12-19T08:18:34.582Z,1013.11
2022-12-19T08:19:29.548Z,1013.14
2022-12-19T08:20:29.527Z,1013.02
2022-12-19T08:21:29.515Z,1013.04
2022-12-19T08:22:29.504Z,1013.07
2022-12-19T08:23:29.520Z,1013.07
2022-12-19T08:24:29.486Z,1013.10
2022-12-19T08:25:29.556Z,1013.09
2022-12-19T08:26:32.693Z,1013.06
2022-12-19T08:27:30.581Z,1013.13
2022-12-19T08:28:29.478Z,1013.15
2022-12-19T08:29:34.460Z,1013.17
2022-12-19T08:30:29.456Z,1013.17
2022-12-19T08:31:29.433Z,1013.22
2022-12-19T08:32:29.401Z,1013.16
2022-12-19T08:33:29.396Z,1013.21
2022-12-19T08:34:29.375Z,1013.18
2022-12-19T08:35:29.383Z,1013.13
2022-12-19T08:36:29.357Z,1013.14
2022-12-19T08:37:29.367Z,1013.14
2022-12-19T08:38:29.375Z,1013.08
2022-12-19T08:39:29.335Z,1013.08
2022-12-19T08:40:35.361Z,1013.03
2022-12-19T08:41:29.299Z,1013.06
2022-12-19T08:42:29.299Z,1013.05
2022-12-19T08:43:29.426Z,1013.00
2022-12-19T08:44:29.273Z,1013.00
2022-12-19T08:45:29.255Z,1013.00
2022-12-19T08:46:29.287Z,1013.00
2022-12-19T08:47:29.270Z,1012.92
2022-12-19T08:48:29.273Z,1012.94
2022-12-19T08:49:29.244Z,1012.92
2022-12-19T08:50:29.202Z,1012.90
2022-12-19T08:51:34.234Z,1012.89
2022-12-19T08:52:30.224Z,1012.96
2022-12-19T08:53:29.185Z,1012.95
2022-12-19T08:54:29.174Z,1012.87
2022-12-19T08:55:29.773Z,1012.96
2022-12-19T08:56:29.204Z,1012.94
2022-12-19T08:57:29.143Z,1012.93
2022-12-19T08:58:29.155Z,1012.92
2022-12-19T08:59:30.740Z,1012.99
2022-12-19T09:00:29.103Z,1013.00
2022-12-19T09:01:29.258Z,1013.00
2022-12-19T09:02:34.215Z,1012.94
2022-12-19T09:03:36.792Z,1012.97
2022-12-19T09:05:59.778Z,1012.92
2022-12-19T09:06:00.118Z,1012.89
2022-12-19T09:06:30.106Z,1012.87
2022-12-19T09:07:29.048Z,1012.80
2022-12-19T09:08:29.016Z,1012.80
2022-12-19T09:09:29.004Z,1012.80
2022-12-19T09:10:29.034Z,1012.78
2022-12-19T09:11:29.126Z,1012.72
2022-12-19T09:12:28.978Z,1012.68
2022-12-19T09:13:33.972Z,1012.66
2022-12-19T09:14:29.080Z,1012.60
2022-12-19T09:15:29.048Z,1012.66
2022-12-19T09:16:29.251Z,1012.62
2022-12-19T09:17:28.983Z,1012.63
2022-12-19T09:18:28.895Z,1012.64
2022-12-19T09:19:28.900Z,1012.63
2022-12-19T09:20:28.918Z,1012.60
2022-12-19T09:21:28.866Z,1012.65
2022-12-19T09:22:29.508Z,1012.66
2022-12-19T09:23:28.843Z,1012.72
2022-12-19T09:24:33.865Z,1012.74
2022-12-19T09:25:29.838Z,1012.79
2022-12-19T09:26:28.809Z,1012.85
2022-12-19T09:27:28.803Z,1012.90
2022-12-19T09:28:28.793Z,1012.90
2022-12-19T09:29:33.623Z,1012.88
2022-12-19T09:30:30.038Z,1012.93
2022-12-19T09:31:28.955Z,1012.80
2022-12-19T09:32:28.741Z,1012.79
2022-12-19T09:33:28.768Z,1012.76
2022-12-19T09:34:37.162Z,1012.72
2022-12-19T09:35:34.728Z,1012.79
2022-12-19T09:36:28.727Z,1012.81
2022-12-19T09:37:28.686Z,1012.73
2022-12-19T09:38:28.674Z,1012.74
2022-12-19T09:39:28.748Z,1012.76
2022-12-19T09:40:28.652Z,1012.84
2022-12-19T09:41:28.945Z,1012.86
2022-12-19T09:42:28.687Z,1012.76
2022-12-19T09:43:28.636Z,1012.77
2022-12-19T09:44:28.607Z,1012.75
2022-12-19T09:45:31.785Z,1012.68
2022-12-19T09:46:33.832Z,1012.67
2022-12-19T09:47:28.611Z,1012.68
2022-12-19T09:48:28.568Z,1012.64
2022-12-19T09:49:28.564Z,1012.64
2022-12-19T09:50:28.605Z,1012.63
2022-12-19T09:51:28.567Z,1012.63
2022-12-19T09:52:30.470Z,1012.67
2022-12-19T09:53:28.575Z,1012.68
2022-12-19T09:54:28.501Z,1012.66
2022-12-19T09:55:28.504Z,1012.63
2022-12-19T09:56:28.497Z,1012.62
2022-12-19T09:57:33.513Z,1012.62
2022-12-19T09:58:28.507Z,1012.63
2022-12-19T09:59:37.093Z,1012.57
2022-12-19T10:00:29.473Z,1012.55
2022-12-19T10:01:28.591Z,1012.61
2022-12-19T10:02:28.694Z,1012.64
2022-12-19T10:03:28.472Z,1012.62
2022-12-19T10:04:28.440Z,1012.64
2022-12-19T10:06:06.420Z,1012.57
2022-12-19T10:07:22.307Z,1012.58
2022-12-19T10:07:49.850Z,1012.57
2022-12-19T10:08:36.696Z,1012.62
2022-12-19T10:12:24.494Z,1012.65
2022-12-19T10:12:37.860Z,1012.61
2022-12-19T10:12:43.617Z,1012.67
2022-12-19T10:12:45.446Z,1012.62
2022-12-19T10:13:29.283Z,1012.58
2022-12-19T10:14:28.270Z,1012.60
2022-12-19T10:15:28.381Z,1012.58
2022-12-19T10:16:28.309Z,1012.59
2022-12-19T10:17:28.377Z,1012.61
2022-12-19T10:18:29.550Z,1012.60
2022-12-19T10:19:33.246Z,1012.55
2022-12-19T10:20:28.231Z,1012.49
2022-12-19T10:21:58.991Z,1012.39
2022-12-19T10:22:29.181Z,1012.29
2022-12-19T10:23:29.375Z,1012.25
2022-12-19T10:24:34.770Z,1012.29
2022-12-19T10:25:29.284Z,1012.30
2022-12-19T10:26:30.273Z,1012.24
2022-12-19T10:27:28.146Z,1012.30
2022-12-19T10:28:28.116Z,1012.28
2022-12-19T10:29:28.108Z,1012.26
2022-12-19T10:30:33.126Z,1012.32
2022-12-19T10:31:28.162Z,1012.31
2022-12-19T10:32:28.076Z,1012.33
2022-12-19T10:33:28.065Z,1012.34
2022-12-19T10:34:28.171Z,1012.43
2022-12-19T10:35:28.040Z,1012.49
2022-12-19T10:36:55.991Z,1012.44
2022-12-19T10:37:39.817Z,1012.37
2022-12-19T10:38:29.021Z,1012.45
2022-12-19T10:39:27.996Z,1012.33
2022-12-19T10:40:28.882Z,1012.25
2022-12-19T10:41:33.010Z,1012.19
2022-12-19T10:42:27.963Z,1012.19
2022-12-19T10:43:33.063Z,1012.23
2022-12-19T10:44:28.972Z,1012.23
2022-12-19T10:45:27.932Z,1012.24
2022-12-19T10:46:28.018Z,1012.29
2022-12-19T10:47:27.968Z,1012.23
2022-12-19T10:48:30.796Z,1012.23
2022-12-19T10:49:27.948Z,1012.18
2022-12-19T10:50:28.003Z,1012.18
2022-12-19T10:51:27.891Z,1012.15
2022-12-19T10:52:32.885Z,1012.06
2022-12-19T10:53:27.918Z,1011.97
2022-12-19T10:54:33.585Z,1011.91
2022-12-19T10:55:28.828Z,1011.87
2022-12-19T10:56:34.983Z,1011.85
2022-12-19T10:57:28.823Z,1011.92
2022-12-19T10:58:27.870Z,1011.99
2022-12-19T10:59:27.818Z,1012.02
2022-12-19T11:00:27.776Z,1012.01
2022-12-19T11:01:28.908Z,1012.09
2022-12-19T11:02:27.906Z,1012.04
2022-12-19T11:03:32.884Z,1011.99
2022-12-19T11:04:27.836Z,1012.04
2022-12-19T11:05:27.775Z,1012.00
2022-12-19T11:06:27.861Z,1011.90
2022-12-19T11:07:27.711Z,1012.00
2022-12-19T11:08:27.746Z,1012.05
2022-12-19T11:09:27.777Z,1012.10
2022-12-19T11:11:11.132Z,1012.08
2022-12-19T11:14:40.945Z,1012.12
2022-12-19T11:16:59.594Z,1012.06
2022-12-19T11:18:05.025Z,1011.99
2022-12-19T11:19:01.263Z,1012.02
2022-12-19T11:21:21.395Z,1011.91
2022-12-19T11:21:39.250Z,1011.89
2022-12-19T11:22:49.880Z,1011.92
2022-12-19T11:27:06.625Z,1011.89
2022-12-19T11:29:27.192Z,1011.95
2022-12-19T11:29:33.290Z,1011.97
2022-12-19T11:29:34.083Z,1011.95
2022-12-19T11:29:39.119Z,1011.97
2022-12-19T11:29:54.116Z,1011.94
2022-12-19T11:30:37.984Z,1011.80
2022-12-19T11:30:39.550Z,1011.84
2022-12-19T11:30:41.367Z,1011.94
2022-12-19T11:30:44.328Z,1011.94
2022-12-19T11:30:48.672Z,1011.83
2022-12-19T11:31:51.068Z,1011.74
2022-12-19T11:32:33.905Z,1011.63
2022-12-19T11:32:45.865Z,1011.66
2022-12-19T11:33:28.535Z,1011.65
2022-12-19T11:34:27.376Z,1011.58
2022-12-19T11:35:37.155Z,1011.57
2022-12-19T11:36:33.382Z,1011.65
2022-12-19T11:37:27.367Z,1011.64
2022-12-19T11:38:27.453Z,1011.65
2022-12-19T11:39:27.328Z,1011.62
2022-12-19T11:40:27.308Z,1011.70
2022-12-19T11:41:27.309Z,1011.63
2022-12-19T11:42:27.323Z,1011.60
2022-12-19T11:43:44.982Z,1011.65
2022-12-19T11:44:28.319Z,1011.59
2022-12-19T11:45:27.265Z,1011.64
2022-12-19T11:46:28.249Z,1011.64
2022-12-19T11:47:32.303Z,1011.75
2022-12-19T11:48:27.224Z,1011.62
2022-12-19T11:49:27.215Z,1011.57
2022-12-19T11:50:27.210Z,1011.58
2022-12-19T11:51:27.191Z,1011.48
2022-12-19T11:53:02.954Z,1011.46
2022-12-19T11:53:28.193Z,1011.51
2022-12-19T11:54:27.184Z,1011.47
2022-12-19T11:55:27.163Z,1011.45
2022-12-19T11:56:27.152Z,1011.46
2022-12-19T11:57:27.121Z,1011.50
2022-12-19T11:58:32.238Z,1011.50
2022-12-19T11:59:28.101Z,1011.47
2022-12-19T12:00:27.094Z,1011.50
2022-12-19T12:01:27.126Z,1011.46
2022-12-19T12:02:28.064Z,1011.40
2022-12-19T12:03:27.168Z,1011.47
2022-12-19T12:04:27.089Z,1011.47
2022-12-19T12:05:27.040Z,1011.47
2022-12-19T12:06:31.455Z,1011.46
2022-12-19T12:07:44.443Z,1011.49
2022-12-19T12:11:24.840Z,1011.43
2022-12-19T12:12:52.546Z,1011.36
2022-12-19T12:15:56.109Z,1011.35
2022-12-19T12:18:50.147Z,1011.29
2022-12-19T12:21:00.210Z,1011.30
2022-12-19T12:22:11.995Z,1011.28
2022-12-19T12:23:18.334Z,1011.23
2022-12-19T12:26:24.342Z,1011.21
2022-12-19T12:31:00.020Z,1011.24
2022-12-19T12:31:03.929Z,1011.26
2022-12-19T12:31:13.256Z,1011.16
2022-12-19T12:31:14.589Z,1011.24
2022-12-19T12:31:16.503Z,1011.14
2022-12-19T12:31:18.863Z,1011.19
2022-12-19T12:31:19.171Z,1011.20
2022-12-19T12:31:38.990Z,1011.17
2022-12-19T12:31:39.146Z,1011.14
2022-12-19T12:31:40.357Z,1011.16
2022-12-19T12:31:45.829Z,1011.15
2022-12-19T12:31:47.733Z,1011.15
2022-12-19T12:31:48.514Z,1011.09
2022-12-19T12:31:50.060Z,1011.12
2022-12-19T12:31:50.267Z,1011.21
2022-12-19T12:35:16.516Z,1011.14
2022-12-19T12:35:34.427Z,1011.14
2022-12-19T12:35:35.104Z,1011.19
2022-12-19T12:35:51.515Z,1011.14
2022-12-19T12:38:13.759Z,1011.11
2022-12-19T12:38:14.547Z,1011.14
2022-12-19T12:38:28.668Z,1011.19
2022-12-19T12:39:33.316Z,1011.21
2022-12-19T12:40:27.651Z,1011.19
2022-12-19T12:41:26.673Z,1011.19
2022-12-19T12:42:31.646Z,1011.19
2022-12-19T12:43:26.633Z,1011.21
2022-12-19T12:44:30.669Z,1011.23
2022-12-19T12:45:27.583Z,1011.22
2022-12-19T12:46:26.675Z,1011.20
2022-12-19T12:47:26.569Z,1011.19
2022-12-19T12:48:26.565Z,1011.16
2022-12-19T12:49:26.569Z,1011.27
2022-12-19T12:50:26.547Z,1011.25
2022-12-19T12:51:26.552Z,1011.25
2022-12-19T12:52:26.510Z,1011.29
2022-12-19T12:53:31.588Z,1011.30
2022-12-19T12:54:26.539Z,1011.24
2022-12-19T12:55:26.493Z,1011.25
2022-12-19T12:56:26.498Z,1011.22
2022-12-19T12:57:26.495Z,1011.20
2022-12-19T12:58:26.445Z,1011.21
2022-12-19T12:59:26.458Z,1011.14
2022-12-19T13:00:26.457Z,1011.15
2022-12-19T13:01:26.606Z,1011.18
2022-12-19T13:02:26.540Z,1011.18
2022-12-19T13:03:26.429Z,1011.14
2022-12-19T13:04:31.437Z,1011.20
2022-12-19T13:05:26.364Z,1011.19
2022-12-19T13:06:26.358Z,1011.21
2022-12-19T13:07:26.378Z,1011.12
2022-12-19T13:08:26.336Z,1011.12
2022-12-19T13:09:26.340Z,1011.15
2022-12-19T13:10:26.354Z,1011.06
2022-12-19T13:11:26.304Z,1011.08
2022-12-19T13:12:26.303Z,1011.13
2022-12-19T13:13:26.439Z,1011.12
2022-12-19T13:14:26.342Z,1011.09
2022-12-19T13:15:31.367Z,1011.17
2022-12-19T13:16:26.322Z,1011.09
2022-12-19T13:17:26.240Z,1011.15
2022-12-19T13:18:26.251Z,1011.11
2022-12-19T13:19:28.743Z,1011.11
2022-12-19T13:20:27.821Z,1011.12
2022-12-19T13:21:26.194Z,1011.07
2022-12-19T13:22:26.176Z,1011.12
2022-12-19T13:23:27.164Z,1011.13
2022-12-19T13:24:26.536Z,1011.07
2022-12-19T13:25:26.190Z,1011.12
2022-12-19T13:26:32.152Z,1011.10
2022-12-19T13:27:26.130Z,1011.12
2022-12-19T13:28:26.123Z,1011.03
2022-12-19T13:29:26.118Z,1011.09
2022-12-19T13:30:26.172Z,1011.11
2022-12-19T13:31:26.185Z,1011.03
2022-12-19T13:32:26.076Z,1011.09
2022-12-19T13:33:26.054Z,1011.09
2022-12-19T13:34:26.054Z,1011.10
2022-12-19T13:39:31.945Z,1011.08
2022-12-19T13:39:48.889Z,1011.07
2022-12-19T13:39:51.497Z,1011.09
2022-12-19T13:39:52.181Z,1011.04
2022-12-19T13:39:58.316Z,1011.04
2022-12-19T13:40:32.313Z,1011.04
2022-12-19T13:41:27.019Z,1011.06
2022-12-19T13:42:26.022Z,1011.07
2022-12-19T13:43:25.945Z,1011.04
2022-12-19T13:44:25.963Z,1011.01
2022-12-19T13:45:25.982Z,1011.09
2022-12-19T13:46:26.011Z,1011.08
2022-12-19T13:47:25.910Z,1011.03
2022-12-19T13:48:30.911Z,1011.06
2022-12-19T13:49:27.478Z,1010.98
2022-12-19T13:50:25.959Z,1011.07
2022-12-19T13:51:25.876Z,1011.02
2022-12-19T13:52:25.906Z,1011.02
2022-12-19T13:53:25.835Z,1010.98
2022-12-19T13:54:25.825Z,1011.09
2022-12-19T13:55:25.810Z,1011.08
2022-12-19T13:56:25.812Z,1011.03
2022-12-19T13:57:25.822Z,1011.00
2022-12-19T13:58:28.837Z,1011.01
2022-12-19T13:59:30.822Z,1010.99
2022-12-19T14:00:25.780Z,1011.00
2022-12-19T14:01:25.903Z,1011.01
2022-12-19T14:02:25.971Z,1011.03
2022-12-19T14:03:25.958Z,1011.06
2022-12-19T14:04:25.727Z,1011.09
2022-12-19T14:05:33.787Z,1011.04
2022-12-19T14:06:26.702Z,1011.04
2022-12-19T14:07:36.099Z,1011.12
2022-12-19T14:08:26.674Z,1011.10
2022-12-19T14:11:24.254Z,1011.07
2022-12-19T14:11:35.019Z,1011.06
2022-12-19T14:11:55.384Z,1011.00
2022-12-19T14:13:43.256Z,1011.11
2022-12-19T14:13:43.457Z,1011.10
2022-12-19T14:14:28.437Z,1011.09
2022-12-19T14:15:25.598Z,1011.04
2022-12-19T14:16:35.010Z,1010.99
2022-12-19T14:17:26.620Z,1011.03
2022-12-19T14:18:42.753Z,1011.04
2022-12-19T14:19:26.865Z,1011.04
2022-12-19T14:22:02.429Z,1010.98
2022-12-19T14:22:05.975Z,1010.99
2022-12-19T14:22:27.242Z,1010.99
2022-12-19T14:23:36.995Z,1011.03
2022-12-19T14:24:26.498Z,1011.02
2022-12-19T14:28:14.210Z,1010.98
2022-12-19T14:28:23.962Z,1010.89
2022-12-19T14:28:28.012Z,1010.98
2022-12-19T14:28:30.114Z,1010.96
2022-12-19T14:29:32.049Z,1010.97
2022-12-19T14:30:32.602Z,1010.96
2022-12-19T14:31:26.528Z,1010.90
2022-12-19T14:33:45.483Z,1010.84
2022-12-19T14:33:45.853Z,1010.90
2022-12-19T14:36:06.441Z,1010.84
2022-12-19T14:36:27.001Z,1010.92
2022-12-19T14:37:54.691Z,1010.85
2022-12-19T14:39:22.601Z,1010.86
2022-12-19T14:39:29.517Z,1010.88
2022-12-19T14:40:25.336Z,1010.87
2022-12-19T14:41:25.306Z,1010.85
2022-12-19T14:43:57.893Z,1010.84
2022-12-19T14:44:00.434Z,1010.79
2022-12-19T14:52:25.699Z,1010.81
2022-12-19T14:52:51.579Z,1010.79
2022-12-19T14:53:10.880Z,1010.75
2022-12-19T14:53:51.488Z,1010.76
2022-12-19T14:54:05.505Z,1010.73
2022-12-19T14:54:13.169Z,1010.78
2022-12-19T14:54:22.084Z,1010.76
2022-12-19T14:54:22.464Z,1010.81
2022-12-19T14:54:31.520Z,1010.82
2022-12-19T14:54:37.410Z,1010.72
2022-12-19T14:56:04.285Z,1010.80
2022-12-19T14:56:57.531Z,1010.77
2022-12-19T14:58:51.301Z,1010.76
2022-12-19T14:58:53.971Z,1010.78
2022-12-19T14:59:26.171Z,1010.81
2022-12-19T15:00:50.667Z,1010.93
2022-12-19T15:01:26.586Z,1010.92
2022-12-19T15:02:27.958Z,1010.90
2022-12-19T15:03:26.213Z,1010.87
2022-12-19T15:04:49.021Z,1010.86
2022-12-19T15:05:31.079Z,1010.90
2022-12-19T15:07:08.331Z,1010.91
2022-12-19T15:07:26.050Z,1010.89
2022-12-19T15:09:17.767Z,1010.89
2022-12-19T15:11:08.481Z,1010.85
2022-12-19T15:11:08.672Z,1010.95
2022-12-19T15:11:53.334Z,1010.92
2022-12-19T15:14:48.563Z,1011.03
2022-12-19T15:14:48.758Z,1010.97
2022-12-19T15:14:53.184Z,1010.95
2022-12-19T15:15:25.925Z,1010.88
2022-12-19T15:16:30.050Z,1010.82
2022-12-19T15:17:24.898Z,1010.85
2022-12-19T15:18:24.909Z,1010.80
2022-12-19T15:19:24.952Z,1010.85
2022-12-19T15:20:24.913Z,1010.83
2022-12-19T15:21:24.859Z,1010.82
2022-12-19T15:22:24.845Z,1010.83
2022-12-19T15:23:24.845Z,1010.87
2022-12-19T15:24:24.828Z,1010.77
2022-12-19T15:26:01.412Z,1010.82
2022-12-19T15:26:25.797Z,1010.88
2022-12-19T15:27:29.818Z,1010.82
2022-12-19T15:28:24.789Z,1010.82
2022-12-19T15:29:24.824Z,1010.80
2022-12-19T15:30:24.778Z,1010.87
2022-12-19T15:31:24.837Z,1010.68
2022-12-19T15:32:24.734Z,1010.69
2022-12-19T15:33:24.740Z,1010.70
2022-12-19T15:34:48.408Z,1010.75
2022-12-19T15:35:25.777Z,1010.67
2022-12-19T15:36:24.715Z,1010.62
2022-12-19T15:37:24.682Z,1010.60
2022-12-19T15:38:29.746Z,1010.58
2022-12-19T15:39:24.671Z,1010.61
2022-12-19T15:40:24.663Z,1010.57
2022-12-19T15:41:24.636Z,1010.63
2022-12-19T15:42:24.716Z,1010.66
2022-12-19T15:44:01.826Z,1010.54
2022-12-19T15:44:25.657Z,1010.58
2022-12-19T15:45:24.641Z,1010.56
2022-12-19T15:46:24.641Z,1010.61
2022-12-19T15:47:24.586Z,1010.65
2022-12-19T15:48:24.598Z,1010.66
2022-12-19T15:49:29.587Z,1010.59
2022-12-19T15:50:24.568Z,1010.56
2022-12-19T15:51:24.528Z,1010.58
2022-12-19T15:52:24.533Z,1010.56
2022-12-19T15:53:38.075Z,1010.53
2022-12-19T15:54:51.938Z,1010.53
2022-12-19T15:55:25.491Z,1010.56
2022-12-19T15:56:24.505Z,1010.60
2022-12-19T15:57:24.491Z,1010.47
2022-12-19T15:58:24.455Z,1010.54
2022-12-19T15:59:24.453Z,1010.56
2022-12-19T16:00:29.445Z,1010.56
2022-12-19T16:01:24.507Z,1010.55
2022-12-19T16:02:24.621Z,1010.65
2022-12-19T16:03:25.540Z,1010.64
2022-12-19T16:04:24.624Z,1010.65
2022-12-19T16:05:24.431Z,1010.67
2022-12-19T16:06:24.361Z,1010.73
2022-12-19T16:07:24.349Z,1010.63
2022-12-19T16:08:24.368Z,1010.66
2022-12-19T16:09:24.347Z,1010.66
2022-12-19T16:10:24.356Z,1010.59
2022-12-19T16:11:29.347Z,1010.60
2022-12-19T16:12:24.322Z,1010.52
2022-12-19T16:13:24.287Z,1010.50
2022-12-19T16:14:24.317Z,1010.41
2022-12-19T16:15:24.309Z,1010.41
2022-12-19T16:16:24.353Z,1010.51
2022-12-19T16:17:24.257Z,1010.54
2022-12-19T16:18:24.230Z,1010.44
2022-12-19T16:19:24.249Z,1010.43
2022-12-19T16:20:24.226Z,1010.44
2022-12-19T16:21:31.274Z,1010.39
2022-12-19T16:22:30.219Z,1010.33
2022-12-19T16:23:24.189Z,1010.40
2022-12-19T16:24:24.205Z,1010.43
2022-12-19T16:25:24.179Z,1010.43
2022-12-19T16:26:24.138Z,1010.41
2022-12-19T16:27:24.174Z,1010.46
2022-12-19T16:28:24.114Z,1010.41
2022-12-19T16:29:24.118Z,1010.39
2022-12-19T16:30:24.131Z,1010.33
2022-12-19T16:31:24.149Z,1010.37
2022-12-19T16:32:24.737Z,1010.34
2022-12-19T16:33:29.093Z,1010.31
2022-12-19T16:34:24.054Z,1010.36
2022-12-19T16:35:54.564Z,1010.32
2022-12-19T16:36:25.054Z,1010.27
2022-12-19T16:37:30.224Z,1010.25
2022-12-19T16:38:25.001Z,1010.27
2022-12-19T16:39:24.045Z,1010.20
2022-12-19T16:40:24.020Z,1010.20
2022-12-19T16:41:23.985Z,1010.15
2022-12-19T16:42:23.961Z,1010.26
2022-12-19T16:43:23.945Z,1010.22
2022-12-19T16:44:28.984Z,1010.25
2022-12-19T16:45:23.950Z,1010.25
2022-12-19T16:46:24.082Z,1010.33
2022-12-19T16:47:23.991Z,1010.35
2022-12-19T16:48:23.889Z,1010.30
2022-12-19T16:49:23.904Z,1010.34
2022-12-19T16:50:23.885Z,1010.30
2022-12-19T16:51:23.908Z,1010.31
2022-12-19T16:52:23.845Z,1010.20
2022-12-19T16:53:23.837Z,1010.19
2022-12-19T16:54:23.829Z,1010.13
2022-12-19T16:55:28.861Z,1010.11
2022-12-19T16:56:23.829Z,1010.13
2022-12-19T16:57:23.787Z,1010.05
2022-12-19T16:58:23.779Z,1010.08
2022-12-19T16:59:23.770Z,1010.14
2022-12-19T17:00:23.758Z,1010.09
2022-12-19T17:01:23.916Z,1010.14
2022-12-19T17:02:23.900Z,1010.11
2022-12-19T17:03:23.779Z,1010.08
2022-12-19T17:04:23.714Z,1010.15
2022-12-19T17:05:23.711Z,1010.18
2022-12-19T17:06:28.725Z,1010.17
2022-12-19T17:07:23.748Z,1010.14
2022-12-19T17:08:23.728Z,1010.20
2022-12-19T17:09:23.672Z,1010.28